KILM

Wilmington International Airport

Wilmington, North Carolina, USA
METAR KILM 141653Z 00000KT 1 1/2SM R35/5500VP6000FT +RA BR SCT018 BKN023 OVC030 17/16 A3019 RMK AO2 TWR VIS 2 SLP222 P0019 T01670156
Observed Flight Rules
Dec-14 @ 16:53 UTC (10 minutes ago) Instrument Flight Rules
Visibility Clouds Conditions
1 1/2 miles
  • Scattered at 1,800' AGL
  • Broken at 2,300' AGL
  • Overcast at 3,000' AGL
  • Heavy Rain
  • Mist
Temperatures Readings Precipitation
Current 17°C / 63°F
Dewpoint 16°C / 61°F
Humidity 94%
Altimeter 30.19" Hg
Pressure 1022.2 hPa
Elevation 9
Current Rain 0.19
METAR KILM 141653Z 00000KT 1 1/2SM R35/5500VP6000FT +RA BR SCT018 BKN023 OVC030 17/16 A3019 RMK AO2 TWR VIS 2 SLP222 P0019 T01670156
Observed Flight Rules
Dec-14 @ 16:53 UTC
(10 minutes ago)
IFR
Clouds
  • Scattered at 1,800' AGL
  • Broken at 2,300' AGL
  • Overcast at 3,000' AGL
Conditions
  • Heavy Rain
  • Mist
Temperature Dewpoint
17°C / 63°F 16°C / 61°F
Humidity Altimeter Pressure
94% 30.19" Hg 1022.2 hPa
Current Rain
0.19